createdAt,value
2023-03-13T00:01:36.258Z,4.47
2023-03-13T00:04:04.968Z,4.97
2023-03-13T00:06:36.169Z,4.37
2023-03-13T00:09:07.028Z,4.90
2023-03-13T00:11:35.926Z,5.03
2023-03-13T00:14:06.140Z,4.80
2023-03-13T00:16:37.823Z,4.90
2023-03-13T00:19:07.485Z,4.47
2023-03-13T00:21:37.719Z,4.90
2023-03-13T00:24:07.104Z,4.43
2023-03-13T00:26:35.509Z,4.97
2023-03-13T00:29:04.142Z,5.27
2023-03-13T00:31:33.354Z,4.53
2023-03-13T00:34:04.891Z,5.10
2023-03-13T00:36:35.465Z,4.70
2023-03-13T00:39:05.264Z,6.07
2023-03-13T00:41:35.065Z,5.63
2023-03-13T00:44:04.466Z,5.10
2023-03-13T00:46:33.458Z,4.50
2023-03-13T00:49:03.700Z,4.87
2023-03-13T00:51:32.297Z,5.13
2023-03-13T00:54:01.727Z,5.03
2023-03-13T00:56:30.757Z,5.53
2023-03-13T00:59:01.520Z,4.87
2023-03-13T01:01:32.889Z,5.03
2023-03-13T01:04:05.496Z,4.87
2023-03-13T01:06:35.930Z,4.37
2023-03-13T01:09:05.963Z,5.00
2023-03-13T01:11:37.397Z,5.63
2023-03-13T01:14:08.418Z,5.30
2023-03-13T01:16:37.947Z,5.83
2023-03-13T01:19:13.026Z,4.83
2023-03-13T01:21:42.392Z,5.00
2023-03-13T01:24:11.522Z,5.70
2023-03-13T01:26:40.047Z,5.43
2023-03-13T01:29:08.634Z,5.27
2023-03-13T01:31:37.984Z,5.10
2023-03-13T01:34:08.574Z,5.47
2023-03-13T01:36:38.847Z,5.57
2023-03-13T01:39:08.178Z,5.97
2023-03-13T01:41:36.884Z,5.23
2023-03-13T01:44:05.868Z,6.57
2023-03-13T01:46:34.560Z,4.97
2023-03-13T01:49:06.766Z,4.93
2023-03-13T01:51:40.490Z,6.00
2023-03-13T01:54:12.701Z,6.07
2023-03-13T01:56:46.029Z,5.87
2023-03-13T01:59:17.160Z,5.40
2023-03-13T02:01:48.680Z,5.37
2023-03-13T02:04:20.258Z,6.50
2023-03-13T02:06:53.575Z,5.87
2023-03-13T02:09:26.241Z,6.07
2023-03-13T02:12:01.169Z,5.83
2023-03-13T02:14:32.173Z,5.43
2023-03-13T02:17:01.848Z,5.83
2023-03-13T02:19:37.158Z,5.43
2023-03-13T02:22:16.032Z,6.50
2023-03-13T02:24:54.934Z,6.13
2023-03-13T02:27:25.408Z,6.27
2023-03-13T02:29:54.302Z,7.23
2023-03-13T02:32:24.255Z,6.50
2023-03-13T02:34:57.871Z,6.53
2023-03-13T02:37:29.092Z,7.03
2023-03-13T02:40:00.899Z,7.50
2023-03-13T02:42:31.953Z,8.17
2023-03-13T02:45:00.422Z,7.73
2023-03-13T02:47:28.868Z,8.90
2023-03-13T02:49:57.442Z,8.90
2023-03-13T02:52:29.191Z,8.70
2023-03-13T02:55:01.839Z,8.20
2023-03-13T02:57:31.887Z,8.90
2023-03-13T03:00:00.425Z,9.10
2023-03-13T03:02:28.975Z,8.03
2023-03-13T03:04:57.420Z,8.27
2023-03-13T03:07:26.176Z,7.93
2023-03-13T03:09:54.946Z,7.50
2023-03-13T03:12:23.582Z,8.20
2023-03-13T03:14:53.581Z,7.73
2023-03-13T03:17:22.187Z,8.00
2023-03-13T03:19:51.285Z,7.20
2023-03-13T03:22:19.794Z,7.00
2023-03-13T03:24:48.771Z,6.30
2023-03-13T03:27:17.270Z,6.33
2023-03-13T03:29:46.049Z,6.37
2023-03-13T03:32:16.075Z,6.37
2023-03-13T03:34:44.581Z,6.13
2023-03-13T03:37:13.036Z,5.97
2023-03-13T03:39:41.609Z,6.03
2023-03-13T03:42:10.404Z,5.70
2023-03-13T03:44:38.842Z,5.73
2023-03-13T03:47:07.629Z,5.33
2023-03-13T03:49:37.893Z,6.17
2023-03-13T03:52:07.246Z,6.00
2023-03-13T03:54:35.751Z,6.20
2023-03-13T03:57:04.250Z,6.50
2023-03-13T03:59:32.894Z,6.80
2023-03-13T04:02:01.522Z,6.47
2023-03-13T04:04:30.094Z,6.60
2023-03-13T04:07:00.479Z,7.40
2023-03-13T04:09:31.806Z,7.40
2023-03-13T04:12:00.692Z,7.53
2023-03-13T04:14:29.321Z,8.50
2023-03-13T04:16:57.912Z,8.50
2023-03-13T04:19:26.435Z,9.40
2023-03-13T04:21:55.258Z,9.20
2023-03-13T04:24:25.203Z,10.77
2023-03-13T04:26:53.954Z,11.07
2023-03-13T04:29:22.692Z,11.73
2023-03-13T04:31:51.534Z,11.83
2023-03-13T04:34:19.980Z,15.20
2023-03-13T04:36:48.521Z,15.03
2023-03-13T04:39:17.147Z,15.87
2023-03-13T04:41:47.303Z,16.67
2023-03-13T04:44:15.794Z,16.80
2023-03-13T04:46:44.370Z,17.87
2023-03-13T04:49:13.001Z,17.80
2023-03-13T04:51:41.542Z,17.63
2023-03-13T04:54:10.032Z,17.43
2023-03-13T04:56:43.667Z,17.10
2023-03-13T04:59:15.719Z,16.50
2023-03-13T05:01:44.889Z,17.13
2023-03-13T05:04:13.410Z,15.80
2023-03-13T05:06:41.895Z,15.60
2023-03-13T05:09:10.450Z,16.67
2023-03-13T05:11:40.393Z,17.93
2023-03-13T05:14:10.931Z,17.33
2023-03-13T05:16:41.132Z,18.23
2023-03-13T05:19:09.698Z,18.70
2023-03-13T05:21:38.265Z,19.47
2023-03-13T05:24:07.414Z,17.73
2023-03-13T05:26:36.215Z,19.07
2023-03-13T05:29:04.846Z,17.90
2023-03-13T05:31:33.422Z,16.63
2023-03-13T05:34:03.347Z,15.97
2023-03-13T05:36:32.260Z,17.17
2023-03-13T05:39:00.885Z,18.00
2023-03-13T05:41:29.434Z,21.10
2023-03-13T05:43:57.973Z,20.13
2023-03-13T05:46:26.607Z,18.67
2023-03-13T05:48:55.183Z,18.37
2023-03-13T05:51:25.264Z,17.20
2023-03-13T05:53:54.040Z,16.90
2023-03-13T05:56:22.523Z,15.07
2023-03-13T05:58:51.050Z,14.73
2023-03-13T06:01:19.604Z,13.67
2023-03-13T06:03:48.530Z,12.70
2023-03-13T06:06:17.252Z,10.97
2023-03-13T06:08:47.229Z,11.37
2023-03-13T06:11:15.684Z,11.90
2023-03-13T06:13:44.501Z,11.93
2023-03-13T06:16:15.105Z,11.23
2023-03-13T06:18:44.250Z,10.80
2023-03-13T06:21:13.089Z,14.17
2023-03-13T06:23:42.375Z,13.20
2023-03-13T06:26:12.336Z,13.73
2023-03-13T06:28:42.259Z,10.43
2023-03-13T06:31:12.076Z,11.07
2023-03-13T06:33:40.861Z,9.53
2023-03-13T06:36:12.272Z,11.43
2023-03-13T06:38:40.773Z,11.00
2023-03-13T06:41:09.744Z,10.60
2023-03-13T06:43:40.924Z,10.00
2023-03-13T06:46:13.753Z,9.50
2023-03-13T06:48:42.387Z,8.20
2023-03-13T06:51:13.481Z,8.67
2023-03-13T06:53:42.152Z,8.83
2023-03-13T06:56:11.036Z,6.80
2023-03-13T06:58:40.946Z,6.80
2023-03-13T07:01:11.037Z,7.80
2023-03-13T07:03:41.446Z,6.07
2023-03-13T07:06:11.445Z,5.97
2023-03-13T07:08:40.541Z,5.53
2023-03-13T07:11:10.735Z,5.77
2023-03-13T07:13:41.174Z,5.80
2023-03-13T07:16:11.394Z,5.63
2023-03-13T07:18:41.972Z,5.93
2023-03-13T07:21:11.893Z,6.10
2023-03-13T07:23:40.662Z,5.40
2023-03-13T07:26:12.101Z,5.23
2023-03-13T07:28:43.052Z,4.83
2023-03-13T07:31:14.781Z,4.60
2023-03-13T07:33:43.492Z,4.70
2023-03-13T07:36:13.759Z,4.93
2023-03-13T07:38:44.022Z,4.90
2023-03-13T07:41:14.519Z,4.73
2023-03-13T07:43:44.584Z,4.33
2023-03-13T07:46:15.427Z,4.50
2023-03-13T07:48:44.947Z,5.03
2023-03-13T07:51:17.048Z,5.27
2023-03-13T07:53:47.852Z,4.10
2023-03-13T07:56:18.702Z,4.27
2023-03-13T07:58:49.190Z,4.50
2023-03-13T08:01:19.280Z,4.07
2023-03-13T08:03:50.900Z,4.50
2023-03-13T08:06:21.730Z,4.80
2023-03-13T08:08:50.537Z,4.67
2023-03-13T08:11:21.660Z,4.33
2023-03-13T08:13:51.608Z,4.27
2023-03-13T08:16:22.688Z,3.67
2023-03-13T08:18:53.564Z,4.03
2023-03-13T08:21:23.324Z,3.73
2023-03-13T08:23:55.615Z,4.30
2023-03-13T08:26:26.413Z,3.63
2023-03-13T08:28:58.638Z,3.50
2023-03-13T08:31:29.737Z,3.23
2023-03-13T08:33:58.634Z,3.97
2023-03-13T08:36:28.766Z,3.87
2023-03-13T08:39:01.127Z,3.70
2023-03-13T08:41:32.269Z,3.53
2023-03-13T08:44:04.658Z,3.80
2023-03-13T08:46:35.517Z,3.27
2023-03-13T08:49:04.940Z,3.67
2023-03-13T08:51:34.412Z,3.40
2023-03-13T08:54:04.658Z,3.87
2023-03-13T08:56:34.977Z,3.47
2023-03-13T08:59:06.799Z,3.30
2023-03-13T09:01:36.957Z,3.40
2023-03-13T09:04:07.121Z,3.37
2023-03-13T09:06:36.597Z,3.20
2023-03-13T09:09:07.211Z,2.93
2023-03-13T09:11:37.610Z,3.10
2023-03-13T09:14:09.004Z,3.67
2023-03-13T09:16:37.907Z,3.00
2023-03-13T09:19:06.770Z,3.07
2023-03-13T09:21:37.226Z,2.70
2023-03-13T09:24:06.386Z,3.00
2023-03-13T09:26:35.446Z,3.13
2023-03-13T09:29:04.282Z,2.47
2023-03-13T09:31:35.212Z,2.57
2023-03-13T09:34:04.212Z,2.70
2023-03-13T09:36:33.075Z,2.30
2023-03-13T09:39:02.064Z,2.50
2023-03-13T09:41:36.611Z,2.40
2023-03-13T09:44:12.830Z,2.47
2023-03-13T09:46:49.625Z,2.23
2023-03-13T09:49:30.350Z,2.63
2023-03-13T09:52:07.281Z,2.60
2023-03-13T09:54:39.884Z,2.33
2023-03-13T09:57:16.878Z,2.70
2023-03-13T09:59:51.471Z,2.30
2023-03-13T10:02:30.684Z,3.20
2023-03-13T10:05:11.850Z,2.20
2023-03-13T10:07:41.107Z,3.10
2023-03-13T10:10:18.143Z,2.50
2023-03-13T10:12:48.512Z,3.07
2023-03-13T10:15:38.734Z,2.83
2023-03-13T10:18:16.675Z,2.07
2023-03-13T10:20:48.169Z,2.63
2023-03-13T10:23:21.528Z,3.03
2023-03-13T10:25:50.099Z,2.67
2023-03-13T10:28:20.746Z,2.23
2023-03-13T10:30:52.732Z,2.33
2023-03-13T10:33:25.812Z,2.20
2023-03-13T10:36:07.585Z,2.20
2023-03-13T10:38:48.047Z,2.50
2023-03-13T10:41:28.322Z,2.80
2023-03-13T10:44:00.830Z,2.60
2023-03-13T10:46:31.460Z,2.30
2023-03-13T10:49:04.264Z,2.90
2023-03-13T10:51:38.418Z,2.80
2023-03-13T10:54:23.252Z,2.80
2023-03-13T10:56:53.339Z,2.77
2023-03-13T10:59:25.255Z,2.17
2023-03-13T11:01:55.495Z,1.83
2023-03-13T11:04:34.607Z,2.50
2023-03-13T11:07:08.936Z,1.87
2023-03-13T11:09:37.622Z,2.03
2023-03-13T11:12:13.332Z,2.13
2023-03-13T11:14:42.990Z,2.13
2023-03-13T11:17:23.117Z,1.57
2023-03-13T11:20:02.239Z,1.90
2023-03-13T11:22:40.715Z,2.23
2023-03-13T11:25:22.458Z,1.77
2023-03-13T11:28:06.178Z,1.70
2023-03-13T11:30:57.893Z,1.63
2023-03-13T11:33:35.570Z,1.90
2023-03-13T11:36:16.195Z,1.83
2023-03-13T11:38:50.775Z,1.60
2023-03-13T11:41:49.508Z,1.87
2023-03-13T11:44:33.438Z,2.40
2023-03-13T11:47:14.909Z,1.50
2023-03-13T11:50:06.173Z,1.87
2023-03-13T11:52:53.681Z,1.40
2023-03-13T11:55:43.253Z,1.70
2023-03-13T11:58:37.224Z,1.30
2023-03-13T12:01:12.290Z,1.50
2023-03-13T12:03:50.000Z,1.40
2023-03-13T12:06:31.818Z,0.90
2023-03-13T12:09:09.258Z,1.53
2023-03-13T12:11:43.912Z,1.37
2023-03-13T12:14:17.312Z,1.27
2023-03-13T12:16:50.626Z,1.10
2023-03-13T12:19:24.140Z,2.13
2023-03-13T12:21:55.381Z,10.17
2023-03-13T12:24:31.818Z,2.57
2023-03-13T12:27:07.550Z,1.77
2023-03-13T12:29:47.029Z,2.17
2023-03-13T12:32:21.105Z,1.50
2023-03-13T12:35:00.866Z,0.80
2023-03-13T12:37:35.651Z,0.80
2023-03-13T12:40:16.092Z,1.70
2023-03-13T12:42:52.736Z,1.30
2023-03-13T12:45:24.821Z,1.10
2023-03-13T12:48:25.052Z,1.00
2023-03-13T12:51:13.920Z,1.40
2023-03-13T12:54:13.339Z,1.20
2023-03-13T12:56:54.259Z,0.77
2023-03-13T12:59:25.818Z,0.80
2023-03-13T13:01:59.137Z,0.80
2023-03-13T13:04:30.077Z,0.73
2023-03-13T13:07:03.391Z,0.90
2023-03-13T13:09:33.792Z,0.70
2023-03-13T13:12:21.971Z,0.70
2023-03-13T13:15:13.873Z,0.87
2023-03-13T13:18:02.462Z,0.77
2023-03-13T13:20:44.552Z,0.73
2023-03-13T13:23:40.613Z,0.90
2023-03-13T13:26:49.029Z,0.70
2023-03-13T13:29:57.770Z,0.70
2023-03-13T13:32:42.936Z,1.10
2023-03-13T13:35:27.007Z,1.10
2023-03-13T13:38:22.432Z,1.80
2023-03-13T13:41:03.030Z,0.93
2023-03-13T13:43:34.832Z,1.00
2023-03-13T13:46:09.707Z,0.80
2023-03-13T13:48:43.621Z,1.10
2023-03-13T13:51:25.841Z,0.80
2023-03-13T13:54:03.422Z,0.53
2023-03-13T13:56:42.572Z,0.67
2023-03-13T13:59:28.873Z,0.57
2023-03-13T14:02:21.329Z,0.70
2023-03-13T14:05:02.124Z,0.53
2023-03-13T14:07:39.066Z,0.60
2023-03-13T14:10:20.072Z,0.50
2023-03-13T14:12:53.727Z,0.70
2023-03-13T14:15:26.591Z,0.77
2023-03-13T14:17:57.553Z,0.90
2023-03-13T14:20:35.046Z,0.90
2023-03-13T14:23:06.529Z,0.80
2023-03-13T14:25:47.209Z,0.93
2023-03-13T14:28:22.573Z,0.60
2023-03-13T14:30:54.325Z,1.17
2023-03-13T14:33:23.366Z,0.90
2023-03-13T14:35:53.817Z,0.70
2023-03-13T14:38:24.415Z,0.90
2023-03-13T14:40:55.602Z,0.80
2023-03-13T14:43:31.265Z,0.77
2023-03-13T14:46:00.756Z,0.70
2023-03-13T14:48:33.204Z,0.70
2023-03-13T14:51:16.024Z,0.97
2023-03-13T14:53:56.957Z,0.63
2023-03-13T14:56:34.929Z,0.80
2023-03-13T14:59:16.601Z,0.77
2023-03-13T15:01:46.064Z,1.10
2023-03-13T15:04:15.384Z,1.70
2023-03-13T15:06:46.293Z,0.87
2023-03-13T15:09:21.688Z,1.00
2023-03-13T15:11:59.891Z,2.63
2023-03-13T15:14:37.918Z,2.37
2023-03-13T15:17:17.041Z,1.17
2023-03-13T15:19:50.735Z,1.10
2023-03-13T15:22:27.115Z,1.00
2023-03-13T15:25:06.037Z,1.27
2023-03-13T15:27:36.332Z,1.40
2023-03-13T15:30:10.304Z,1.10
2023-03-13T15:32:42.769Z,1.00
2023-03-13T15:35:29.286Z,1.00
2023-03-13T15:38:01.563Z,0.87
2023-03-13T15:40:32.126Z,0.83
2023-03-13T15:43:00.706Z,1.00
2023-03-13T15:45:29.560Z,1.13
2023-03-13T15:48:02.253Z,1.27
2023-03-13T15:50:33.750Z,1.20
2023-03-13T15:53:06.134Z,1.00
2023-03-13T15:55:35.002Z,1.03
2023-03-13T15:58:04.631Z,1.20
2023-03-13T16:00:35.428Z,1.80
2023-03-13T16:03:04.492Z,1.60
2023-03-13T16:05:33.252Z,1.30
2023-03-13T16:08:04.337Z,6.77
2023-03-13T16:10:34.597Z,2.20
2023-03-13T16:13:09.331Z,1.87
2023-03-13T16:15:38.683Z,1.67
2023-03-13T16:18:12.027Z,3.77
2023-03-13T16:20:44.200Z,2.73
2023-03-13T16:23:17.214Z,2.10
2023-03-13T16:25:47.117Z,1.90
2023-03-13T16:28:16.384Z,1.50
2023-03-13T16:30:48.873Z,1.17
2023-03-13T16:33:18.573Z,1.60
2023-03-13T16:35:55.692Z,1.43
2023-03-13T16:38:25.910Z,1.10
2023-03-13T16:40:55.128Z,1.27
2023-03-13T16:43:25.906Z,1.50
2023-03-13T16:45:54.696Z,1.70
2023-03-13T16:48:25.237Z,1.57
2023-03-13T16:50:54.019Z,1.50
2023-03-13T16:53:25.284Z,2.70
2023-03-13T16:55:56.110Z,1.87
2023-03-13T16:58:25.126Z,1.60
2023-03-13T17:01:05.116Z,1.53
2023-03-13T17:03:35.684Z,1.77
2023-03-13T17:06:08.837Z,2.27
2023-03-13T17:08:39.804Z,2.47
2023-03-13T17:11:17.330Z,2.10
2023-03-13T17:13:48.667Z,1.60
2023-03-13T17:16:19.673Z,1.80
2023-03-13T17:18:51.942Z,1.77
2023-03-13T17:21:23.933Z,2.50
2023-03-13T17:23:54.835Z,2.70
2023-03-13T17:26:25.646Z,2.10
2023-03-13T17:28:56.311Z,1.77
2023-03-13T17:31:28.097Z,2.63
2023-03-13T17:33:56.902Z,1.73
2023-03-13T17:36:29.802Z,2.03
2023-03-13T17:39:04.658Z,2.00
2023-03-13T17:41:35.177Z,1.63
2023-03-13T17:44:05.104Z,1.60
2023-03-13T17:46:39.764Z,1.90
2023-03-13T17:49:09.256Z,2.10
2023-03-13T17:51:38.326Z,1.63
2023-03-13T17:54:09.398Z,2.03
2023-03-13T17:56:40.931Z,1.53
2023-03-13T17:59:15.328Z,1.80
2023-03-13T18:01:44.574Z,1.40
2023-03-13T18:04:15.310Z,1.80
2023-03-13T18:06:46.876Z,1.93
2023-03-13T18:09:19.377Z,2.57
2023-03-13T18:11:49.181Z,1.90
2023-03-13T18:14:18.266Z,1.87
2023-03-13T18:16:52.507Z,3.30
2023-03-13T18:19:24.206Z,2.73
2023-03-13T18:21:55.694Z,2.43
2023-03-13T18:24:29.397Z,2.30
2023-03-13T18:26:58.532Z,2.77
2023-03-13T18:29:29.520Z,2.47
2023-03-13T18:32:01.643Z,2.23
2023-03-13T18:34:31.379Z,2.20
2023-03-13T18:37:03.980Z,2.03
2023-03-13T18:39:35.458Z,2.90
2023-03-13T18:42:04.845Z,3.17
2023-03-13T18:44:34.853Z,3.93
2023-03-13T18:47:06.937Z,2.90
2023-03-13T18:49:36.054Z,3.50
2023-03-13T18:52:05.244Z,2.93
2023-03-13T18:54:36.246Z,4.27
2023-03-13T18:57:12.467Z,3.20
2023-03-13T18:59:41.448Z,2.93
2023-03-13T19:02:17.320Z,3.40
2023-03-13T19:04:47.329Z,3.33
2023-03-13T19:07:18.214Z,3.60
2023-03-13T19:09:48.553Z,2.40
2023-03-13T19:12:17.506Z,2.40
2023-03-13T19:14:47.196Z,2.40
2023-03-13T19:17:20.873Z,2.57
2023-03-13T19:19:50.475Z,2.10
2023-03-13T19:22:21.626Z,2.30
2023-03-13T19:24:52.269Z,2.50
2023-03-13T19:27:21.236Z,2.00
2023-03-13T19:29:51.525Z,2.33
2023-03-13T19:32:21.301Z,2.80
2023-03-13T19:34:52.233Z,2.30
2023-03-13T19:37:21.859Z,6.10
2023-03-13T19:39:55.967Z,7.00
2023-03-13T19:42:30.340Z,5.43
2023-03-13T19:44:59.452Z,3.93
2023-03-13T19:47:30.659Z,2.93
2023-03-13T19:49:59.746Z,3.97
2023-03-13T19:52:29.105Z,3.90
2023-03-13T19:55:05.511Z,3.50
2023-03-13T19:57:34.653Z,3.10
2023-03-13T20:00:09.722Z,3.00
2023-03-13T20:02:38.921Z,3.10
2023-03-13T20:05:13.314Z,2.93
2023-03-13T20:07:48.053Z,2.40
2023-03-13T20:10:19.953Z,2.87
2023-03-13T20:12:49.241Z,2.93
2023-03-13T20:15:21.522Z,3.07
2023-03-13T20:17:54.095Z,3.30
2023-03-13T20:20:27.236Z,3.03
2023-03-13T20:22:56.853Z,2.77
2023-03-13T20:25:28.176Z,2.77
2023-03-13T20:27:57.674Z,2.57
2023-03-13T20:30:26.824Z,3.00
2023-03-13T20:32:59.642Z,2.40
2023-03-13T20:35:30.582Z,2.33
2023-03-13T20:38:02.066Z,2.57
2023-03-13T20:40:36.790Z,2.40
2023-03-13T20:43:06.990Z,2.80
2023-03-13T20:45:36.512Z,2.63
2023-03-13T20:48:06.283Z,2.13
2023-03-13T20:50:36.204Z,3.23
2023-03-13T20:53:07.832Z,3.47
2023-03-13T20:55:39.892Z,3.00
2023-03-13T20:58:08.878Z,2.60
2023-03-13T21:00:43.511Z,2.77
2023-03-13T21:03:14.420Z,2.77
2023-03-13T21:05:46.437Z,2.40
2023-03-13T21:08:15.611Z,2.07
2023-03-13T21:10:46.355Z,2.90
2023-03-13T21:13:15.446Z,3.17
2023-03-13T21:15:44.632Z,3.33
2023-03-13T21:18:13.280Z,3.20
2023-03-13T21:20:42.758Z,2.80
2023-03-13T21:23:11.660Z,2.90
2023-03-13T21:25:40.488Z,2.60
2023-03-13T21:28:10.729Z,2.90
2023-03-13T21:30:42.778Z,3.10
2023-03-13T21:33:12.282Z,3.00
2023-03-13T21:35:41.246Z,2.83
2023-03-13T21:38:10.829Z,2.80
2023-03-13T21:40:43.306Z,2.80
2023-03-13T21:43:13.536Z,3.13
2023-03-13T21:45:42.313Z,3.70
2023-03-13T21:48:11.133Z,3.93
2023-03-13T21:50:46.598Z,3.37
2023-03-13T21:53:15.576Z,3.63
2023-03-13T21:55:45.674Z,3.87
2023-03-13T21:58:18.230Z,3.30
2023-03-13T22:00:47.299Z,5.80
2023-03-13T22:03:16.322Z,6.43
2023-03-13T22:05:47.157Z,16.93
2023-03-13T22:08:16.352Z,6.30
2023-03-13T22:10:49.695Z,4.50
2023-03-13T22:13:20.403Z,4.33
2023-03-13T22:15:50.641Z,3.50
2023-03-13T22:18:19.569Z,3.50
2023-03-13T22:20:48.878Z,3.80
2023-03-13T22:23:17.709Z,3.70
2023-03-13T22:25:48.311Z,3.67
2023-03-13T22:28:19.289Z,3.70
2023-03-13T22:30:48.700Z,4.30
2023-03-13T22:33:17.576Z,3.57
2023-03-13T22:35:48.902Z,4.57
2023-03-13T22:38:17.741Z,9.20
2023-03-13T22:40:47.305Z,4.67
2023-03-13T22:43:17.766Z,3.43
2023-03-13T22:45:49.222Z,3.37
2023-03-13T22:48:19.434Z,3.57
2023-03-13T22:50:48.459Z,3.53
2023-03-13T22:53:17.013Z,2.90
2023-03-13T22:55:45.776Z,3.27
2023-03-13T22:58:14.813Z,2.87
2023-03-13T23:00:43.534Z,2.83
2023-03-13T23:03:13.757Z,2.30
2023-03-13T23:05:45.054Z,2.57
2023-03-13T23:08:14.070Z,2.37
2023-03-13T23:10:44.509Z,2.10
2023-03-13T23:13:14.413Z,2.17
2023-03-13T23:15:58.907Z,1.93
2023-03-13T23:18:29.637Z,2.40
2023-03-13T23:20:58.480Z,2.80
2023-03-13T23:23:27.207Z,2.20
2023-03-13T23:25:55.904Z,2.27
2023-03-13T23:28:24.498Z,2.27
2023-03-13T23:30:54.195Z,2.43
2023-03-13T23:33:22.824Z,2.20
2023-03-13T23:35:52.880Z,1.97
2023-03-13T23:38:24.151Z,2.63
2023-03-13T23:40:53.260Z,2.20
2023-03-13T23:43:22.453Z,2.30
2023-03-13T23:45:51.054Z,2.33
2023-03-13T23:48:19.704Z,2.20
2023-03-13T23:50:48.291Z,2.20
2023-03-13T23:53:18.309Z,2.20
2023-03-13T23:55:47.271Z,2.33
2023-03-13T23:58:15.782Z,2.13
